Time;durP1;ratioP1;P1;durP2;ratioP2;P2;SDS_P1;SDS_P2;PMS_P1;PMS_P2;Temp;Humidity;BMP_temperature;BMP_pressure;BME280_temperature;BME280_humidity;BME280_pressure;Samples;Min_cycle;Max_cycle;Signal;HPM_P1;HPM_P2
2023/07/03 00:02:24;;;;;;;20.00;9.00;;;;;;;12.69;86.44;97004.16;5040191;28;20032;-59
2023/07/03 00:04:52;;;;;;;18.80;9.25;;;;;;;12.69;86.41;96993.31;5042291;28;20049;-59
2023/07/03 00:07:19;;;;;;;18.73;9.77;;;;;;;12.84;85.39;97001.44;5039571;28;20037;-58
2023/07/03 00:09:46;;;;;;;18.50;8.95;;;;;;;12.90;85.00;96999.50;5039523;28;20695;-58
2023/07/03 00:12:12;;;;;;;19.00;9.45;;;;;;;12.97;85.42;96997.31;5049750;28;20029;-58
2023/07/03 00:14:39;;;;;;;21.05;9.55;;;;;;;12.97;84.93;96994.59;5039479;28;20049;-59
2023/07/03 00:17:10;;;;;;;18.98;8.88;;;;;;;13.01;84.77;96997.56;5035855;28;20500;-59
2023/07/03 00:19:37;;;;;;;18.90;8.95;;;;;;;12.69;86.18;96996.03;5037286;28;20052;-59
2023/07/03 00:22:04;;;;;;;22.88;10.20;;;;;;;12.57;86.88;96999.84;5048063;28;20048;-59
2023/07/03 00:24:31;;;;;;;22.30;8.85;;;;;;;12.47;87.63;96995.25;5032208;28;20041;-58
2023/07/03 00:26:58;;;;;;;16.90;8.77;;;;;;;12.46;88.21;97000.97;5042218;28;20033;-57
2023/07/03 00:29:29;;;;;;;19.88;9.32;;;;;;;12.59;86.92;97000.38;5039343;28;20045;-57
2023/07/03 00:31:55;;;;;;;20.10;8.70;;;;;;;12.61;86.34;96998.19;5042781;28;20144;-58
2023/07/03 00:34:22;;;;;;;21.90;9.20;;;;;;;12.51;86.69;97003.66;5040285;28;20041;-59
2023/07/03 00:36:49;;;;;;;21.85;9.13;;;;;;;12.59;86.74;97005.00;5037681;28;20424;-58
2023/07/03 00:39:16;;;;;;;20.25;9.93;;;;;;;12.55;86.81;97006.63;5036846;28;20094;-57
2023/07/03 00:41:43;;;;;;;17.95;8.70;;;;;;;12.15;89.90;97007.22;5032807;28;20515;-57
2023/07/03 00:44:12;;;;;;;21.52;9.25;;;;;;;12.17;89.95;97002.31;5021230;28;20053;-58
2023/07/03 00:46:42;;;;;;;20.10;8.55;;;;;;;12.19;90.39;97004.75;5022300;28;20056;-58
2023/07/03 00:49:09;;;;;;;17.92;8.82;;;;;;;12.25;90.33;97000.97;5037661;28;20523;-57
2023/07/03 00:51:40;;;;;;;22.08;9.00;;;;;;;12.34;89.14;96998.50;5028559;28;20104;-57
2023/07/03 00:54:06;;;;;;;24.15;10.85;;;;;;;12.54;87.84;96991.44;5043856;28;20557;-58
2023/07/03 00:56:33;;;;;;;17.58;8.60;;;;;;;12.66;87.83;96991.13;5033794;28;20049;-56
2023/07/03 00:59:01;;;;;;;18.08;8.73;;;;;;;12.55;89.00;96991.16;5037901;28;20052;-58
2023/07/03 01:01:35;;;;;;;18.60;9.18;;;;;;;12.77;86.85;96990.03;5039736;28;20115;-58
2023/07/03 01:04:15;;;;;;;17.98;8.50;;;;;;;12.82;86.53;96990.00;5041089;28;20702;-57
2023/07/03 01:06:54;;;;;;;20.88;8.48;;;;;;;12.79;88.67;96990.56;5038204;28;20067;-57
2023/07/03 01:09:24;;;;;;;17.88;8.57;;;;;;;12.77;89.88;96992.75;5038409;28;20032;-58
2023/07/03 01:11:51;;;;;;;16.80;8.95;;;;;;;12.82;87.71;96990.00;5041976;28;20033;-58
2023/07/03 01:14:20;;;;;;;22.80;9.52;;;;;;;12.94;86.49;96997.84;5035858;28;20052;-57
2023/07/03 01:16:49;;;;;;;19.60;9.23;;;;;;;13.07;85.52;96984.75;5040787;28;20037;-58
2023/07/03 01:19:29;;;;;;;18.00;8.23;;;;;;;13.11;85.91;96988.56;5035030;28;20403;-57
2023/07/03 01:22:01;;;;;;;22.38;8.98;;;;;;;13.14;87.14;96993.44;5046789;28;20041;-58
2023/07/03 01:24:31;;;;;;;15.05;8.15;;;;;;;13.29;84.84;96994.44;5034310;28;20155;-58
2023/07/03 01:27:03;;;;;;;18.27;7.93;;;;;;;13.35;84.15;96986.00;5036856;28;20071;-58
2023/07/03 01:29:32;;;;;;;22.15;9.40;;;;;;;13.55;83.15;96986.19;5041120;28;20119;-58
2023/07/03 01:32:03;;;;;;;20.90;8.98;;;;;;;13.74;81.89;96983.63;5040429;28;20484;-58
2023/07/03 01:34:32;;;;;;;21.20;9.85;;;;;;;13.89;80.48;96993.59;5037126;28;20057;-58
2023/07/03 01:37:01;;;;;;;19.70;8.75;;;;;;;13.89;81.08;96994.41;5046139;28;20075;-58
2023/07/03 01:39:27;;;;;;;19.20;8.38;;;;;;;13.92;80.76;96987.59;5044055;28;20040;-58
2023/07/03 01:41:55;;;;;;;18.20;8.48;;;;;;;13.89;80.57;96985.44;5007721;28;20925;-57
2023/07/03 01:44:21;;;;;;;22.05;9.65;;;;;;;13.94;80.34;96985.41;5037299;28;20044;-56
2023/07/03 01:46:48;;;;;;;19.98;8.27;;;;;;;13.91;81.21;96977.81;5047405;28;20123;-58
2023/07/03 01:49:15;;;;;;;17.05;8.35;;;;;;;14.06;80.44;96982.31;5031907;28;20052;-59
2023/07/03 01:52:03;;;;;;;20.80;9.15;;;;;;;14.19;79.87;96980.84;5037171;28;20057;-58
2023/07/03 01:54:39;;;;;;;18.15;8.20;;;;;;;14.11;81.13;96978.75;5033408;28;20036;-57
2023/07/03 01:57:07;;;;;;;20.45;9.45;;;;;;;14.08;81.32;96977.41;5038639;28;20037;-56
2023/07/03 01:59:34;;;;;;;18.65;8.45;;;;;;;14.03;80.97;96983.72;5033175;28;20069;-59
2023/07/03 02:02:07;;;;;;;18.40;8.63;;;;;;;14.15;80.31;96979.78;5038147;28;20049;-58
2023/07/03 02:04:40;;;;;;;17.85;7.57;;;;;;;14.33;79.38;96980.22;5034697;28;20037;-59
2023/07/03 02:07:09;;;;;;;18.60;7.68;;;;;;;14.41;79.36;96974.94;5039666;28;20044;-58
2023/07/03 02:09:36;;;;;;;19.65;9.18;;;;;;;14.40;79.04;96975.22;5041853;28;20037;-58
2023/07/03 02:12:07;;;;;;;18.55;8.60;;;;;;;14.53;78.32;96974.53;5033012;28;20041;-57
2023/07/03 02:14:35;;;;;;;19.40;8.45;;;;;;;14.65;78.29;96971.44;5030013;28;20067;-57
2023/07/03 02:17:03;;;;;;;20.02;10.02;;;;;;;14.70;77.27;96976.84;5037644;28;20041;-59
2023/07/03 02:19:31;;;;;;;20.58;9.07;;;;;;;14.79;78.08;96974.34;5035242;28;20669;-59
2023/07/03 02:21:59;;;;;;;16.45;7.30;;;;;;;14.87;79.32;96966.59;5029155;28;20052;-57
2023/07/03 02:24:26;;;;;;;18.40;8.27;;;;;;;14.94;75.43;96970.63;5038105;28;20072;-58
2023/07/03 02:26:53;;;;;;;16.48;7.90;;;;;;;14.85;82.11;96979.72;5041301;28;20045;-59
2023/07/03 02:29:20;;;;;;;17.05;7.57;;;;;;;14.79;80.94;96976.25;5033861;28;20817;-58
2023/07/03 02:31:46;;;;;;;15.77;8.20;;;;;;;14.75;80.00;96975.16;5038759;28;20077;-59
2023/07/03 02:34:14;;;;;;;17.80;7.88;;;;;;;14.85;78.36;96971.56;5045245;28;20036;-58
2023/07/03 02:36:41;;;;;;;18.63;8.63;;;;;;;14.92;76.14;96972.81;5040344;28;20120;-59
2023/07/03 02:39:09;;;;;;;18.88;8.30;;;;;;;15.01;78.17;96974.91;5047730;28;20041;-58
2023/07/03 02:41:35;;;;;;;18.77;8.30;;;;;;;15.08;75.41;96975.38;5039742;28;20037;-57
2023/07/03 02:44:02;;;;;;;18.73;8.55;;;;;;;14.99;76.52;96969.75;5039933;28;20620;-59
2023/07/03 02:46:31;;;;;;;23.40;7.82;;;;;;;15.08;76.88;96967.19;5039945;28;20115;-58
2023/07/03 02:48:58;;;;;;;19.35;7.97;;;;;;;15.16;75.43;96969.28;5040337;28;20558;-56
2023/07/03 02:51:24;;;;;;;16.83;7.20;;;;;;;15.18;74.76;96966.22;5041055;28;21316;-56
2023/07/03 02:53:54;;;;;;;19.38;8.82;;;;;;;15.24;73.83;96970.53;5050163;28;20029;-58
2023/07/03 02:56:21;;;;;;;19.80;7.78;;;;;;;15.26;73.80;96962.06;5038367;28;20052;-56
2023/07/03 02:58:47;;;;;;;18.95;7.88;;;;;;;15.38;73.67;96957.00;5039402;28;20393;-58
2023/07/03 03:01:19;;;;;;;16.30;7.05;;;;;;;15.46;71.49;96961.78;5037573;28;20056;-58
2023/07/03 03:03:47;;;;;;;17.98;7.82;;;;;;;15.57;71.00;96967.09;5034707;28;20532;-58
2023/07/03 03:06:14;;;;;;;13.60;6.80;;;;;;;15.54;72.09;96967.69;5037495;28;20041;-59
2023/07/03 03:08:40;;;;;;;17.15;7.50;;;;;;;15.54;73.26;96960.31;5038118;28;20042;-59
2023/07/03 03:11:07;;;;;;;16.70;7.50;;;;;;;15.53;71.48;96955.97;5041858;28;20048;-58
2023/07/03 03:13:34;;;;;;;16.27;8.48;;;;;;;15.62;70.82;96958.03;5036795;28;20025;-58
2023/07/03 03:16:01;;;;;;;18.35;8.80;;;;;;;15.68;71.08;96960.41;5038922;28;20048;-58
2023/07/03 03:18:27;;;;;;;17.98;7.95;;;;;;;15.73;70.67;96959.50;5043177;28;20052;-58
2023/07/03 03:20:54;;;;;;;16.23;7.93;;;;;;;15.76;70.26;96963.53;5042373;28;20091;-58
2023/07/03 03:23:20;;;;;;;18.88;8.65;;;;;;;15.78;70.69;96956.72;5043581;28;20044;-59
2023/07/03 03:25:47;;;;;;;17.35;7.47;;;;;;;15.73;71.10;96952.13;5034438;28;20084;-59
2023/07/03 03:28:14;;;;;;;15.23;6.97;;;;;;;15.77;69.50;96955.06;5041255;28;20043;-58
2023/07/03 03:30:41;;;;;;;15.77;7.80;;;;;;;15.82;71.06;96954.19;5035530;28;20581;-59
2023/07/03 03:33:07;;;;;;;17.05;7.93;;;;;;;15.81;71.22;96952.56;5045246;28;20090;-59
2023/07/03 03:35:34;;;;;;;19.75;7.30;;;;;;;15.67;72.91;96950.56;5037968;28;20045;-59
2023/07/03 03:38:01;;;;;;;23.08;9.82;;;;;;;15.64;72.84;96953.91;5044206;28;20132;-59
2023/07/03 03:40:27;;;;;;;18.98;8.23;;;;;;;15.62;73.24;96953.38;5040701;28;20037;-59
2023/07/03 03:42:54;;;;;;;15.93;7.50;;;;;;;15.66;71.71;96953.63;5034126;28;20049;-59
2023/07/03 03:45:21;;;;;;;14.73;7.85;;;;;;;15.71;73.82;96956.25;5035657;28;20044;-59
2023/07/03 03:47:48;;;;;;;17.10;8.40;;;;;;;15.71;72.47;96951.59;5041912;28;20049;-58
2023/07/03 03:50:15;;;;;;;16.40;7.55;;;;;;;15.77;71.73;96954.28;5039418;28;20052;-59
2023/07/03 03:52:42;;;;;;;13.82;6.97;;;;;;;15.84;71.74;96962.88;5039326;28;20087;-59
2023/07/03 03:55:09;;;;;;;15.27;7.85;;;;;;;15.65;74.04;96962.88;5038014;28;20040;-58
2023/07/03 03:57:35;;;;;;;15.07;8.02;;;;;;;15.73;72.82;96956.75;5039628;28;20046;-59
2023/07/03 04:00:04;;;;;;;17.77;9.00;;;;;;;15.78;72.56;96958.63;5043013;28;20787;-57
2023/07/03 04:02:37;;;;;;;17.13;8.07;;;;;;;15.87;71.80;96959.56;5042506;28;20133;-56
2023/07/03 04:05:05;;;;;;;15.32;6.95;;;;;;;16.03;67.48;96965.59;5042300;28;20116;-55
2023/07/03 04:07:31;;;;;;;17.25;8.00;;;;;;;16.18;66.48;96966.50;5039738;28;20507;-57
2023/07/03 04:09:58;;;;;;;18.80;8.05;;;;;;;16.22;66.30;96960.13;5030831;28;20051;-59
2023/07/03 04:12:24;;;;;;;15.23;8.32;;;;;;;16.32;65.12;96961.03;5042703;28;20072;-59
2023/07/03 04:14:51;;;;;;;16.65;8.02;;;;;;;16.32;65.11;96961.03;5034553;28;20080;-59
2023/07/03 04:17:18;;;;;;;16.25;6.57;;;;;;;16.40;64.86;96965.03;5047998;28;20067;-59
2023/07/03 04:19:44;;;;;;;17.00;7.72;;;;;;;16.36;65.02;96959.34;5039169;28;20740;-59
2023/07/03 04:22:11;;;;;;;14.18;7.20;;;;;;;16.43;65.31;96964.44;5048206;28;20048;-59
2023/07/03 04:24:37;;;;;;;17.10;7.88;;;;;;;16.50;64.88;96965.66;5036746;28;20056;-59
2023/07/03 04:27:05;;;;;;;17.77;7.10;;;;;;;16.43;65.13;96965.22;5040769;28;20044;-58
2023/07/03 04:29:31;;;;;;;17.60;7.18;;;;;;;16.36;65.98;96967.53;5039506;28;20041;-59
2023/07/03 04:31:58;;;;;;;15.48;7.38;;;;;;;16.45;65.67;96973.94;5040697;28;20047;-59
2023/07/03 04:34:24;;;;;;;15.40;7.43;;;;;;;16.44;65.40;96980.50;5039387;28;20071;-59
2023/07/03 04:36:51;;;;;;;18.88;8.75;;;;;;;16.54;65.10;96984.97;5048374;28;20044;-59
2023/07/03 04:39:17;;;;;;;16.20;6.95;;;;;;;16.54;65.33;96979.50;5040888;28;20123;-58
2023/07/03 04:41:44;;;;;;;23.00;7.90;;;;;;;16.58;65.33;96986.00;5043159;28;20036;-59
2023/07/03 04:44:12;;;;;;;20.77;7.47;;;;;;;16.67;64.49;96986.13;5042331;28;20037;-59
2023/07/03 04:46:39;;;;;;;15.18;6.93;;;;;;;16.78;64.46;96995.75;5044571;28;20052;-59
2023/07/03 04:49:07;;;;;;;16.08;7.22;;;;;;;16.82;64.29;96993.25;5045983;28;20041;-59
2023/07/03 04:51:34;;;;;;;15.63;7.45;;;;;;;16.90;63.57;97000.75;5033066;28;20045;-59
2023/07/03 04:54:01;;;;;;;15.45;6.63;;;;;;;16.96;63.77;96987.78;5047171;28;20063;-59
2023/07/03 04:56:28;;;;;;;16.23;7.15;;;;;;;17.00;64.16;96990.72;5041827;28;20060;-59
2023/07/03 04:58:55;;;;;;;15.13;6.35;;;;;;;17.08;64.02;97000.16;5040936;28;20037;-58
2023/07/03 05:01:24;;;;;;;18.25;7.50;;;;;;;17.05;63.79;96996.09;5044090;28;20512;-58
2023/07/03 05:03:50;;;;;;;16.05;7.45;;;;;;;17.17;62.82;96998.31;5047652;28;20500;-58
2023/07/03 05:06:17;;;;;;;12.80;7.00;;;;;;;17.09;62.60;96999.84;5046395;28;20523;-59
2023/07/03 05:08:46;;;;;;;18.13;6.57;;;;;;;17.16;62.57;97000.28;5039408;28;20045;-59
2023/07/03 05:11:13;;;;;;;15.00;7.20;;;;;;;17.16;62.62;96999.44;5046898;28;20424;-56
2023/07/03 05:13:39;;;;;;;17.00;6.88;;;;;;;17.15;62.93;96997.84;5041037;28;20048;-58
2023/07/03 05:16:05;;;;;;;12.38;7.03;;;;;;;17.19;63.18;96998.84;5038979;28;20109;-60
2023/07/03 05:18:32;;;;;;;18.17;7.18;;;;;;;17.33;62.21;97008.97;5051554;28;20048;-60
2023/07/03 05:20:59;;;;;;;15.48;6.18;;;;;;;17.20;62.40;97005.13;5041564;28;20522;-60
2023/07/03 05:23:25;;;;;;;13.85;6.78;;;;;;;17.11;63.24;97005.03;5034427;28;20045;-60
2023/07/03 05:25:52;;;;;;;12.88;6.65;;;;;;;17.09;63.41;97008.06;5046223;28;20049;-60
2023/07/03 05:28:19;;;;;;;14.63;6.82;;;;;;;17.16;63.64;97007.66;5032706;28;20652;-60
2023/07/03 05:30:53;;;;;;;13.93;6.55;;;;;;;17.22;63.29;97011.94;5043474;28;20053;-60
2023/07/03 05:33:19;;;;;;;14.48;6.70;;;;;;;17.23;63.46;97020.94;5039596;28;20121;-60
2023/07/03 05:35:46;;;;;;;15.85;7.18;;;;;;;17.34;62.42;97013.31;5042021;28;20042;-60
2023/07/03 05:38:18;;;;;;;17.25;6.57;;;;;;;17.40;62.75;97012.91;5041379;28;20183;-60
2023/07/03 05:40:46;;;;;;;14.00;6.82;;;;;;;17.54;62.11;97015.63;5041892;28;20059;-61
2023/07/03 05:43:13;;;;;;;17.13;6.72;;;;;;;17.50;63.09;97014.63;5048944;28;20037;-60
2023/07/03 05:45:40;;;;;;;19.13;7.35;;;;;;;17.39;63.55;97016.75;5039689;28;20047;-60
2023/07/03 05:48:07;;;;;;;13.75;6.53;;;;;;;17.55;62.97;97019.97;5043676;28;20101;-59
2023/07/03 05:50:34;;;;;;;16.42;8.75;;;;;;;17.53;62.90;97022.22;5032706;28;20106;-61
2023/07/03 05:53:00;;;;;;;17.17;7.25;;;;;;;17.57;63.82;97021.63;5037370;28;20050;-61
2023/07/03 05:55:27;;;;;;;14.38;6.30;;;;;;;17.64;62.49;97019.25;5036628;28;20048;-59
2023/07/03 05:57:53;;;;;;;14.93;7.13;;;;;;;17.73;63.28;97024.84;5039758;28;20047;-60
2023/07/03 06:00:21;;;;;;;14.48;6.95;;;;;;;17.70;63.15;97018.03;5039839;28;20047;-60
2023/07/03 06:02:51;;;;;;;15.25;7.10;;;;;;;17.80;62.55;97017.03;5041855;28;20144;-59
2023/07/03 06:05:20;;;;;;;12.95;7.00;;;;;;;17.85;62.39;97030.59;5043814;28;20074;-60
2023/07/03 06:07:47;;;;;;;14.93;7.07;;;;;;;17.96;60.26;97031.16;5039668;28;20106;-59
2023/07/03 06:10:13;;;;;;;17.25;7.28;;;;;;;17.84;61.36;97030.88;5045151;28;20056;-60
2023/07/03 06:12:41;;;;;;;13.65;7.47;;;;;;;17.97;60.19;97026.47;5046910;28;20052;-60
2023/07/03 06:15:09;;;;;;;20.25;7.28;;;;;;;18.11;61.09;97031.94;5045675;28;20120;-59
2023/07/03 06:17:40;;;;;;;12.05;6.53;;;;;;;18.16;60.66;97037.31;5044826;28;20037;-59
2023/07/03 06:20:07;;;;;;;15.18;6.32;;;;;;;18.16;59.08;97031.81;5038984;28;20136;-59
2023/07/03 06:22:34;;;;;;;14.13;6.72;;;;;;;17.97;60.60;97045.66;5039560;28;20123;-60
2023/07/03 06:25:01;;;;;;;13.65;6.00;;;;;;;18.11;59.63;97046.47;5040463;28;20037;-60
2023/07/03 06:27:27;;;;;;;18.33;7.03;;;;;;;18.18;59.43;97048.78;5043550;28;20040;-60
2023/07/03 06:29:54;;;;;;;13.00;6.05;;;;;;;18.27;59.78;97044.16;5049687;28;20044;-59
2023/07/03 06:32:20;;;;;;;21.60;6.78;;;;;;;18.32;59.12;97051.47;5047519;28;20044;-60
2023/07/03 06:34:47;;;;;;;19.38;7.07;;;;;;;18.25;59.75;97053.81;5039219;28;20055;-59
2023/07/03 06:37:13;;;;;;;16.80;7.28;;;;;;;18.38;59.84;97060.34;5049430;28;20033;-60
2023/07/03 06:39:40;;;;;;;15.10;6.20;;;;;;;18.47;59.46;97066.75;5036635;28;20037;-60
2023/07/03 06:42:09;;;;;;;13.63;6.13;;;;;;;18.56;59.08;97069.53;5052825;28;20032;-60
2023/07/03 06:44:40;;;;;;;13.05;5.70;;;;;;;18.68;59.31;97069.78;5029917;28;20441;-60
2023/07/03 06:47:07;;;;;;;19.65;7.80;;;;;;;18.54;58.57;97063.56;5042689;28;20043;-60
2023/07/03 06:49:34;;;;;;;12.40;6.13;;;;;;;18.66;59.00;97057.50;5043751;28;20132;-59
2023/07/03 06:52:01;;;;;;;15.85;6.80;;;;;;;18.56;59.47;97066.78;5037527;28;20123;-60
2023/07/03 06:54:28;;;;;;;12.80;5.93;;;;;;;18.70;58.67;97070.28;5047935;28;21523;-60
2023/07/03 06:56:54;;;;;;;13.82;6.43;;;;;;;18.77;59.92;97074.50;5043620;28;20048;-60
2023/07/03 06:59:21;;;;;;;14.98;6.18;;;;;;;18.65;59.60;97070.38;5037366;28;20041;-59
2023/07/03 07:01:47;;;;;;;12.75;6.55;;;;;;;18.81;59.65;97064.53;5033853;28;20432;-60
2023/07/03 07:04:14;;;;;;;14.38;6.53;;;;;;;18.72;60.23;97065.28;5048261;28;20052;-58
2023/07/03 07:06:41;;;;;;;15.00;6.70;;;;;;;18.74;60.53;97077.84;5042852;28;20603;-59
2023/07/03 07:09:08;;;;;;;16.65;6.05;;;;;;;18.75;60.10;97068.53;5046728;28;20044;-59
2023/07/03 07:11:35;;;;;;;12.32;6.07;;;;;;;18.70;60.41;97063.97;5033897;28;20045;-59
2023/07/03 07:14:04;;;;;;;14.48;7.38;;;;;;;18.52;61.42;97071.28;5049696;28;20037;-59
2023/07/03 07:16:34;;;;;;;16.50;6.65;;;;;;;18.31;61.30;97067.09;5046104;28;20040;-60
2023/07/03 07:19:03;;;;;;;14.35;6.72;;;;;;;18.15;62.77;97068.56;5049887;28;20041;-61
2023/07/03 07:21:32;;;;;;;18.50;6.72;;;;;;;18.19;63.30;97075.06;5051859;28;20044;-60
2023/07/03 07:24:11;;;;;;;17.75;6.75;;;;;;;18.22;63.61;97079.09;5037480;28;20037;-57
2023/07/03 07:26:37;;;;;;;15.25;6.78;;;;;;;18.45;62.45;97077.19;5041821;28;20589;-60
2023/07/03 07:29:04;;;;;;;17.08;6.50;;;;;;;18.43;62.83;97079.44;5045494;28;20044;-61
2023/07/03 07:31:31;;;;;;;13.05;6.78;;;;;;;18.28;63.28;97075.94;5043721;28;20056;-60
2023/07/03 07:33:58;;;;;;;19.13;6.75;;;;;;;18.51;62.90;97089.66;5050495;28;20033;-60
2023/07/03 07:36:26;;;;;;;16.70;6.45;;;;;;;18.41;62.77;97076.19;5050118;28;20051;-59
2023/07/03 07:38:53;;;;;;;19.50;7.70;;;;;;;18.20;62.49;97084.88;5041276;28;20033;-60
2023/07/03 07:41:24;;;;;;;11.68;6.18;;;;;;;18.39;62.82;97087.47;5041750;28;20076;-60
2023/07/03 07:43:52;;;;;;;15.35;6.60;;;;;;;18.29;62.56;97096.75;5046950;28;20535;-58
2023/07/03 07:46:19;;;;;;;13.07;6.00;;;;;;;18.47;62.35;97083.19;5043229;28;20041;-61
2023/07/03 07:48:49;;;;;;;16.27;7.45;;;;;;;18.53;62.49;97089.31;5051216;28;20079;-60
2023/07/03 07:51:15;;;;;;;12.27;6.38;;;;;;;18.41;63.06;97092.63;5047420;28;20503;-60
2023/07/03 07:53:42;;;;;;;18.20;6.80;;;;;;;18.43;63.85;97096.69;5048961;28;20067;-60
2023/07/03 07:56:10;;;;;;;13.93;6.45;;;;;;;18.49;62.95;97091.06;5043347;28;20041;-60
2023/07/03 07:58:37;;;;;;;13.52;6.18;;;;;;;18.62;62.37;97092.16;5039018;28;20059;-59
2023/07/03 08:01:05;;;;;;;13.75;6.72;;;;;;;18.31;63.28;97094.50;5053582;28;20047;-60
2023/07/03 08:03:32;;;;;;;15.00;6.97;;;;;;;18.15;63.82;97101.44;5047292;28;20043;-60
2023/07/03 08:06:04;;;;;;;20.10;7.72;;;;;;;17.95;64.73;97098.03;5041239;28;20128;-60
2023/07/03 08:08:32;;;;;;;14.38;6.25;;;;;;;18.09;64.75;97099.94;5047762;28;20576;-60
2023/07/03 08:11:00;;;;;;;14.57;5.97;;;;;;;18.29;63.13;97104.16;5043624;28;20052;-58
2023/07/03 08:13:30;;;;;;;11.60;6.05;;;;;;;18.47;62.12;97102.38;5035578;28;20057;-60
2023/07/03 08:15:57;;;;;;;14.70;6.30;;;;;;;18.80;60.77;97104.84;5046676;28;20038;-61
2023/07/03 08:18:24;;;;;;;14.65;5.90;;;;;;;18.68;61.22;97102.69;5051917;28;20177;-61
2023/07/03 08:20:52;;;;;;;15.45;6.72;;;;;;;18.84;58.69;97105.84;5043184;28;20048;-60
2023/07/03 08:23:19;;;;;;;18.23;5.68;;;;;;;18.74;58.69;97100.63;5037034;28;20045;-60
2023/07/03 08:25:53;;;;;;;14.45;5.65;;;;;;;18.64;59.25;97109.91;5040942;28;20067;-61
2023/07/03 08:28:22;;;;;;;13.57;5.72;;;;;;;18.56;60.74;97102.41;5035455;28;20118;-61
2023/07/03 08:30:48;;;;;;;11.30;5.43;;;;;;;18.42;59.61;97106.03;5044049;28;20049;-61
2023/07/03 08:33:15;;;;;;;16.80;5.75;;;;;;;18.54;60.19;97110.97;5046554;28;20051;-61
2023/07/03 08:35:42;;;;;;;17.55;6.97;;;;;;;18.66;59.66;97104.13;5043804;28;20045;-61
2023/07/03 08:38:12;;;;;;;19.13;6.38;;;;;;;18.82;59.48;97094.38;5038515;28;20045;-61
2023/07/03 08:40:38;;;;;;;11.30;5.43;;;;;;;18.95;58.34;97108.34;5037382;28;20044;-61
2023/07/03 08:43:09;;;;;;;12.85;6.10;;;;;;;18.94;58.18;97098.50;5044400;28;20385;-61
2023/07/03 08:45:40;;;;;;;14.80;5.43;;;;;;;19.17;57.36;97098.47;5040858;28;20082;-60
2023/07/03 08:48:14;;;;;;;10.27;5.43;;;;;;;19.31;56.81;97110.16;5047549;28;20524;-58
2023/07/03 08:50:47;;;;;;;16.95;5.75;;;;;;;18.93;57.95;97103.16;5040180;28;20036;-60
2023/07/03 08:53:18;;;;;;;13.40;5.40;;;;;;;18.93;57.44;97105.91;5042149;28;20670;-59
2023/07/03 08:55:51;;;;;;;;;;;;;;;19.18;56.75;97097.34;5041545;28;20120;-60
2023/07/03 08:58:18;;;;;;;13.73;5.07;;;;;;;19.14;55.14;97096.34;5041948;28;20316;-58
2023/07/03 09:01:08;;;;;;;14.75;5.57;;;;;;;19.27;55.25;97092.69;5047913;28;20738;-60
2023/07/03 09:03:52;;;;;;;16.95;5.82;;;;;;;19.36;54.83;97101.78;5047271;28;20044;-59
2023/07/03 09:06:25;;;;;;;12.05;4.93;;;;;;;19.40;54.97;97101.97;5044680;28;20494;-59
2023/07/03 09:09:12;;;;;;;14.70;5.32;;;;;;;19.12;54.55;97087.66;5044630;28;20412;-57
2023/07/03 09:11:42;;;;;;;14.13;4.93;;;;;;;19.24;56.23;97113.34;5039593;28;20067;-59
2023/07/03 09:14:20;;;;;;;14.63;5.00;;;;;;;19.02;54.40;97086.72;5048483;28;20048;-61
2023/07/03 09:16:47;;;;;;;11.88;4.97;;;;;;;19.20;53.92;97092.38;5045166;28;20595;-61
2023/07/03 09:19:25;;;;;;;13.40;4.35;;;;;;;19.60;53.52;97086.03;5044928;28;20049;-61
2023/07/03 09:21:56;;;;;;;10.07;4.43;;;;;;;19.86;53.33;97090.78;5040642;28;20090;-61
2023/07/03 09:24:29;;;;;;;12.38;4.68;;;;;;;20.12;52.48;97087.31;5038209;28;20131;-61
2023/07/03 09:27:05;;;;;;;8.30;4.10;;;;;;;20.19;50.55;97092.34;5044692;28;20044;-61
2023/07/03 09:29:34;;;;;;;12.77;4.18;;;;;;;20.27;49.91;97084.06;5045070;28;20040;-61
2023/07/03 09:32:01;;;;;;;11.85;4.30;;;;;;;20.38;47.76;97078.28;5038712;28;20053;-59
2023/07/03 09:35:07;;;;;;;10.52;3.88;;;;;;;20.76;48.53;97079.53;5046462;28;20041;-60
2023/07/03 09:37:40;;;;;;;11.20;3.78;;;;;;;20.98;46.38;97084.03;5050220;28;20040;-60
2023/07/03 09:40:14;;;;;;;11.63;3.50;;;;;;;21.37;46.26;97094.28;5040937;28;20061;-61
2023/07/03 09:42:41;;;;;;;11.27;3.65;;;;;;;21.17;45.81;97097.44;5036465;28;20045;-60
2023/07/03 09:45:22;;;;;;;10.85;3.50;;;;;;;21.01;46.39;97086.13;5043583;28;20048;-61
2023/07/03 09:48:00;;;;;;;11.43;3.30;;;;;;;20.95;45.76;97090.19;5039979;28;20067;-61
2023/07/03 09:50:31;;;;;;;10.85;3.42;;;;;;;20.88;45.75;97101.69;5047300;28;20374;-60
2023/07/03 09:52:58;;;;;;;6.63;2.83;;;;;;;21.38;45.59;97091.16;5041330;28;20044;-60
2023/07/03 09:55:35;;;;;;;10.05;3.15;;;;;;;21.28;44.78;97100.63;5045947;28;20115;-60
2023/07/03 09:58:10;;;;;;;7.68;3.33;;;;;;;21.21;45.86;97102.25;5040839;28;20044;-61
2023/07/03 10:00:50;;;;;;;8.60;3.85;;;;;;;20.93;46.19;97108.97;5035215;28;20041;-60
2023/07/03 10:03:26;;;;;;;12.60;4.07;;;;;;;20.90;46.91;97099.41;5043827;28;20790;-59
2023/07/03 10:06:15;;;;;;;8.63;3.28;;;;;;;21.25;46.72;97100.47;5048588;28;20041;-60
2023/07/03 10:08:49;;;;;;;10.10;3.20;;;;;;;21.67;45.19;97117.13;5041832;28;20037;-59
2023/07/03 10:11:59;;;;;;;;;;;;;;;21.76;46.14;97122.66;5046042;28;20564;-60
2023/07/03 10:14:39;;;;;;;9.93;3.53;;;;;;;21.52;45.74;97118.50;5034426;28;19924;-60
2023/07/03 10:17:12;;;;;;;8.02;3.42;;;;;;;21.52;46.11;97115.75;5046698;28;20038;-60
2023/07/03 10:19:45;;;;;;;10.27;3.63;;;;;;;21.54;46.80;97124.50;5043582;28;20508;-60
2023/07/03 10:22:14;;;;;;;8.57;3.13;;;;;;;20.89;46.69;97119.00;5046555;28;20123;-60
2023/07/03 10:24:42;;;;;;;8.82;3.55;;;;;;;20.83;47.01;97123.03;5036800;28;20076;-59
2023/07/03 10:27:09;;;;;;;9.73;3.55;;;;;;;21.18;46.70;97115.56;5043927;28;20052;-60
2023/07/03 10:29:41;;;;;;;13.38;3.13;;;;;;;21.61;45.99;97118.47;5047892;28;20073;-59
2023/07/03 10:32:14;;;;;;;8.20;3.00;;;;;;;21.73;45.79;97134.31;5043187;28;20535;-61
2023/07/03 10:34:48;;;;;;;9.73;3.53;;;;;;;22.00;45.86;97129.47;5042413;28;20544;-61
2023/07/03 10:37:18;;;;;;;8.52;3.45;;;;;;;21.03;46.84;97124.31;5043680;28;20036;-57
2023/07/03 10:39:53;;;;;;;10.77;3.60;;;;;;;21.59;45.66;97125.47;5040528;28;20049;-62
2023/07/03 10:42:44;;;;;;;10.73;3.25;;;;;;;21.87;46.68;97130.53;5044076;28;20575;-61
2023/07/03 10:45:14;;;;;;;9.60;3.88;;;;;;;22.01;46.81;97139.38;5045666;28;20033;-59
2023/07/03 10:47:54;;;;;;;8.60;3.33;;;;;;;22.21;46.74;97131.44;5037448;28;20094;-60
2023/07/03 10:50:40;;;;;;;12.88;4.18;;;;;;;;;;5045418;28;20044;-60
2023/07/03 10:53:50;;;;;;;10.77;3.90;;;;;;;21.94;47.18;97141.84;5046587;28;20072;-60
2023/07/03 10:56:28;;;;;;;9.15;3.83;;;;;;;22.28;46.22;97139.19;4994391;28;20123;-58
2023/07/03 10:59:05;;;;;;;11.60;3.67;;;;;;;22.17;46.50;97141.53;5042410;28;20053;-60
2023/07/03 11:01:48;;;;;;;9.25;3.40;;;;;;;22.25;46.92;97132.41;5051556;28;20478;-58
2023/07/03 11:04:43;;;;;;;12.23;3.95;;;;;;;21.95;47.16;97137.94;5041979;28;20048;-60
2023/07/03 11:07:30;;;;;;;9.82;3.83;;;;;;;22.46;46.91;97132.41;5047827;28;20098;-59
2023/07/03 11:10:06;;;;;;;13.90;4.68;;;;;;;22.68;46.58;97133.25;5045494;28;20045;-59
2023/07/03 11:12:41;;;;;;;12.32;4.22;;;;;;;23.07;46.36;97132.22;5043217;28;20048;-56
2023/07/03 11:15:32;;;;;;;11.13;4.13;;;;;;;22.95;45.99;97133.78;5041283;28;20128;-59
2023/07/03 11:18:14;;;;;;;10.43;3.88;;;;;;;22.66;46.37;97140.25;5046274;28;20601;-60
2023/07/03 11:20:54;;;;;;;15.52;4.18;;;;;;;22.39;47.14;97147.88;5038813;28;20049;-59
2023/07/03 11:23:47;;;;;;;11.75;3.80;;;;;;;22.43;47.44;97152.38;5047837;28;20044;-61
2023/07/03 11:26:27;;;;;;;12.00;4.30;;;;;;;21.26;49.32;97159.91;5044573;28;20036;-59
2023/07/03 11:28:57;;;;;;;8.35;3.17;;;;;;;21.47;49.01;97160.00;5040621;28;20137;-59
2023/07/03 11:31:25;;;;;;;10.93;3.70;;;;;;;21.69;49.54;97158.94;5041997;28;20073;-60
2023/07/03 11:33:53;;;;;;;7.63;3.53;;;;;;;21.67;49.83;97163.19;5038296;28;20050;-60
2023/07/03 11:36:54;;;;;;;13.25;4.28;;;;;;;21.29;51.25;97165.56;5050983;28;20037;-60
2023/07/03 11:39:33;;;;;;;10.48;3.88;;;;;;;21.55;49.58;97164.66;5039684;28;20551;-60
2023/07/03 11:42:02;;;;;;;9.65;3.45;;;;;;;21.63;50.65;97160.25;5043084;28;20052;-59